Погода Сметкина 2 недели

Варминско-Мазурское воеводство, Польша

17 - 30 июля
  • 17июля
    Сегодня
    +16°
    +28°
    Ясно и безоблачно
    ВремяПогодаТемператураВлажностьДавлениеВетер, м/сВероятность осадков
    02:00Небольшая облачность+21°C94 %746 мм2.4 м/с18 %
    05:00Небольшая облачность+20°C95 %748 мм2.6 м/с2 %
    08:00Ясно и безоблачно+23°C85 %749 мм2.7 м/с2 %
    11:00Практически безоблачно+27°C53 %750 мм3.5 м/с2 %
    14:00Ясно и безоблачно+27°C47 %750 мм4.1 м/с2 %
    17:00Практически безоблачно+27°C43 %750 мм4.1 м/с2 %
    20:00Небольшая облачность+24°C58 %751 мм2.1 м/с2 %
    23:00Ясно и безоблачно+19°C80 %751 мм1.5 м/с2 %
  • 18июля
    Четверг
    +14°
    +24°
    Практически безоблачно
    ВремяПогодаТемператураВлажностьДавлениеВетер, м/сВероятность осадков
    02:00Ясно и безоблачно+18°C85 %751 мм2.1 м/с2 %
    05:00Практически безоблачно+17°C87 %751 мм2.3 м/с2 %
    08:00Ясно и безоблачно+20°C72 %752 мм2.5 м/с2 %
    11:00Небольшая облачность и лёгкий дождик+23°C58 %752 мм3.6 м/с31 %
    14:00Практически безоблачно+24°C51 %752 мм4.4 м/с25 %
    17:00Облачно с прояснениями+24°C50 %752 мм4.1 м/с6 %
    20:00Практически безоблачно+22°C65 %753 мм2.5 м/с2 %
    23:00Ясно и безоблачно+17°C86 %753 мм1.8 м/с2 %
  • 19июля
    Пятница
    +13°
    +24°
    Практически безоблачно
    ВремяПогодаТемператураВлажностьДавлениеВетер, м/сВероятность осадков
    02:00Практически безоблачно+16°C93 %753 мм1.7 м/с2 %
    05:00Ясно и безоблачно+15°C93 %753 мм2.4 м/с2 %
    08:00Ясно и безоблачно+18°C76 %753 мм2.7 м/с2 %
    11:00Ясно и безоблачно+22°C58 %753 мм3.3 м/с2 %
    14:00Практически безоблачно+23°C47 %752 мм4.0 м/с2 %
    17:00Небольшая облачность+24°C47 %751 мм4.1 м/с2 %
    20:00Ясно и безоблачно+22°C61 %751 мм2.9 м/с2 %
    23:00Практически безоблачно+16°C83 %750 мм1.8 м/с2 %
  • 20июля
    Суббота
    +14°
    +25°
    Ясно и безоблачно
    ВремяПогодаТемператураВлажностьДавлениеВетер, м/сВероятность осадков
    02:00Практически безоблачно+15°C90 %750 мм1.7 м/с2 %
    05:00Ясно и безоблачно+14°C94 %749 мм1.9 м/с2 %
    08:00Практически безоблачно+17°C77 %749 мм1.9 м/с2 %
    11:00Ясно и безоблачно+22°C61 %748 мм1.8 м/с2 %
    14:00Ясно и безоблачно+24°C47 %747 мм2.2 м/с6 %
    17:00Небольшая облачность+25°C44 %746 мм2.8 м/с8 %
    20:00Ясно и безоблачно+23°C63 %746 мм2.2 м/с3 %
    23:00Ясно и безоблачно+18°C85 %746 мм1.6 м/с2 %
  • 21июля
    Воскресенье
    +15°
    +26°
    Ясно и безоблачно
    ВремяПогодаТемператураВлажностьДавлениеВетер, м/сВероятность осадков
    02:00Ясно и безоблачно+16°C91 %745 мм1.5 м/с2 %
    05:00Ясно и безоблачно+15°C96 %745 мм1.9 м/с2 %
    08:00Ясно и безоблачно+19°C78 %745 мм1.6 м/с3 %
    11:00Ясно и безоблачно+23°C51 %745 мм1.6 м/с5 %
    14:00Ясно и безоблачно+25°C44 %744 мм2.6 м/с5 %
    17:00Ясно и безоблачно+25°C42 %743 мм3.1 м/с5 %
    20:00Ясно и безоблачно+23°C65 %743 мм2.4 м/с2 %
    23:00Ясно и безоблачно+18°C78 %743 мм1.8 м/с2 %
Мы используем cookies
Соглашаюсь